createdAt,value
2023-02-28T00:01:38.480Z,2.63
2023-02-28T00:04:10.310Z,3.42
2023-02-28T00:06:38.652Z,2.60
2023-02-28T00:09:07.308Z,3.30
2023-02-28T00:11:35.465Z,2.73
2023-02-28T00:14:04.057Z,6.28
2023-02-28T00:16:33.249Z,4.32
2023-02-28T00:19:01.585Z,5.50
2023-02-28T00:21:31.696Z,3.50
2023-02-28T00:24:00.144Z,3.87
2023-02-28T00:26:28.773Z,2.95
2023-02-28T00:28:57.346Z,3.10
2023-02-28T00:31:26.933Z,3.85
2023-02-28T00:33:55.369Z,3.83
2023-02-28T00:36:23.879Z,3.05
2023-02-28T00:38:53.562Z,2.95
2023-02-28T00:41:22.257Z,4.30
2023-02-28T00:43:51.423Z,3.40
2023-02-28T00:46:20.516Z,4.75
2023-02-28T00:48:50.184Z,3.75
2023-02-28T00:51:18.502Z,2.40
2023-02-28T00:53:47.706Z,2.23
2023-02-28T00:56:17.392Z,3.72
2023-02-28T00:58:46.411Z,4.10
2023-02-28T01:01:14.766Z,2.35
2023-02-28T01:03:43.902Z,1.92
2023-02-28T01:06:12.660Z,5.55
2023-02-28T01:08:41.009Z,2.47
2023-02-28T01:11:11.262Z,2.67
2023-02-28T01:13:41.131Z,2.55
2023-02-28T01:16:10.413Z,2.05
2023-02-28T01:18:38.968Z,1.70
2023-02-28T01:21:07.665Z,4.47
2023-02-28T01:23:36.629Z,4.90
2023-02-28T01:26:07.870Z,3.97
2023-02-28T01:28:36.849Z,2.05
2023-02-28T01:31:08.121Z,5.20
2023-02-28T01:33:37.159Z,2.60
2023-02-28T01:36:08.745Z,2.77
2023-02-28T01:38:37.304Z,4.03
2023-02-28T01:41:06.778Z,4.10
2023-02-28T01:43:55.912Z,3.43
2023-02-28T01:46:25.982Z,2.07
2023-02-28T01:48:58.733Z,2.57
2023-02-28T01:51:31.701Z,3.33
2023-02-28T01:54:07.674Z,3.03
2023-02-28T01:56:38.223Z,6.70
2023-02-28T01:59:06.946Z,1.80
2023-02-28T02:01:37.181Z,1.95
2023-02-28T02:04:06.218Z,2.13
2023-02-28T02:06:39.383Z,2.08
2023-02-28T02:09:08.321Z,1.55
2023-02-28T02:11:37.297Z,2.15
2023-02-28T02:14:54.893Z,1.73
2023-02-28T02:17:34.633Z,1.27
2023-02-28T02:20:29.578Z,2.30
2023-02-28T02:23:37.258Z,1.85
2023-02-28T02:26:35.119Z,2.65
2023-02-28T02:29:33.869Z,2.75
2023-02-28T02:32:25.151Z,2.38
2023-02-28T02:35:03.996Z,3.13
2023-02-28T02:37:39.394Z,3.30
2023-02-28T02:40:16.746Z,2.47
2023-02-28T02:42:57.953Z,2.13
2023-02-28T02:45:36.383Z,2.20
2023-02-28T02:48:08.171Z,2.10
2023-02-28T02:50:41.638Z,2.33
2023-02-28T02:53:12.833Z,1.60
2023-02-28T02:55:46.655Z,3.13
2023-02-28T02:58:19.224Z,2.07
2023-02-28T03:00:52.824Z,2.57
2023-02-28T03:03:30.058Z,1.87
2023-02-28T03:06:01.837Z,2.27
2023-02-28T03:08:31.766Z,2.33
2023-02-28T03:11:03.110Z,1.65
2023-02-28T03:14:03.526Z,1.73
2023-02-28T03:16:38.638Z,2.60
2023-02-28T03:19:31.993Z,1.98
2023-02-28T03:22:18.781Z,1.67
2023-02-28T03:24:53.102Z,3.20
2023-02-28T03:27:28.650Z,3.23
2023-02-28T03:30:03.364Z,1.70
2023-02-28T03:32:36.499Z,2.17
2023-02-28T03:35:10.628Z,2.10
2023-02-28T03:37:45.577Z,3.40
2023-02-28T03:40:18.182Z,2.97
2023-02-28T03:42:52.174Z,2.13
2023-02-28T03:45:24.762Z,3.70
2023-02-28T03:47:56.718Z,1.90
2023-02-28T03:50:29.978Z,3.60
2023-02-28T03:53:05.941Z,3.43
2023-02-28T03:55:40.617Z,3.57
2023-02-28T03:58:17.993Z,3.60
2023-02-28T04:00:50.888Z,2.30
2023-02-28T04:03:19.307Z,6.43
2023-02-28T04:05:54.810Z,5.57
2023-02-28T04:08:24.713Z,3.60
2023-02-28T04:11:00.110Z,5.47
2023-02-28T04:13:28.385Z,2.23
2023-02-28T04:15:56.759Z,1.90
2023-02-28T04:18:25.954Z,2.17
2023-02-28T04:20:54.895Z,2.87
2023-02-28T04:23:24.876Z,3.10
2023-02-28T04:25:57.144Z,2.17
2023-02-28T04:28:25.681Z,4.28
2023-02-28T04:30:57.620Z,5.03
2023-02-28T04:33:26.072Z,4.30
2023-02-28T04:36:03.558Z,5.57
2023-02-28T04:38:35.713Z,2.83
2023-02-28T04:41:04.019Z,2.03
2023-02-28T04:43:33.687Z,3.20
2023-02-28T04:46:06.056Z,2.10
2023-02-28T04:48:36.726Z,1.97
2023-02-28T04:51:06.604Z,2.40
2023-02-28T04:53:36.834Z,5.70
2023-02-28T04:56:05.459Z,1.87
2023-02-28T04:58:34.658Z,2.57
2023-02-28T05:01:13.741Z,2.25
2023-02-28T05:03:42.608Z,1.73
2023-02-28T05:06:11.490Z,2.37
2023-02-28T05:08:42.220Z,2.17
2023-02-28T05:11:20.926Z,4.55
2023-02-28T05:13:50.508Z,1.30
2023-02-28T05:16:20.400Z,2.40
2023-02-28T05:18:50.294Z,5.10
2023-02-28T05:21:31.422Z,7.87
2023-02-28T05:24:03.601Z,5.00
2023-02-28T05:26:32.796Z,3.57
2023-02-28T05:29:04.495Z,4.10
2023-02-28T05:31:33.362Z,2.67
2023-02-28T05:34:02.444Z,3.70
2023-02-28T05:36:30.839Z,2.83
2023-02-28T05:38:59.039Z,7.07
2023-02-28T05:41:29.187Z,8.33
2023-02-28T05:44:00.707Z,5.63
2023-02-28T05:46:28.998Z,3.77
2023-02-28T05:49:00.833Z,5.20
2023-02-28T05:51:31.847Z,7.10
2023-02-28T05:54:03.696Z,8.27
2023-02-28T05:56:35.469Z,9.40
2023-02-28T05:59:04.231Z,10.93
2023-02-28T06:01:36.096Z,11.87
2023-02-28T06:04:06.243Z,16.80
2023-02-28T06:06:37.012Z,11.07
2023-02-28T06:09:06.502Z,10.67
2023-02-28T06:11:36.920Z,9.37
2023-02-28T06:14:06.768Z,12.27
2023-02-28T06:16:36.751Z,7.37
2023-02-28T06:19:06.644Z,6.20
2023-02-28T06:21:38.628Z,11.23
2023-02-28T06:24:07.380Z,5.47
2023-02-28T06:26:37.694Z,5.23
2023-02-28T06:29:06.851Z,2.77
2023-02-28T06:31:35.148Z,7.13
2023-02-28T06:34:03.416Z,2.87
2023-02-28T06:36:31.778Z,6.90
2023-02-28T06:39:00.115Z,8.07
2023-02-28T06:41:30.483Z,4.47
2023-02-28T06:44:02.527Z,6.13
2023-02-28T06:46:31.075Z,5.90
2023-02-28T06:48:59.816Z,4.17
2023-02-28T06:51:28.425Z,14.07
2023-02-28T06:53:56.857Z,11.80
2023-02-28T06:56:25.670Z,11.73
2023-02-28T06:58:54.610Z,6.10
2023-02-28T07:01:24.766Z,8.13
2023-02-28T07:03:54.139Z,6.77
2023-02-28T07:06:23.576Z,3.03
2023-02-28T07:08:53.847Z,3.90
2023-02-28T07:11:23.656Z,6.80
2023-02-28T07:13:52.170Z,2.83
2023-02-28T07:16:20.968Z,3.70
2023-02-28T07:18:51.227Z,3.67
2023-02-28T07:21:24.026Z,4.90
2023-02-28T07:23:52.433Z,4.13
2023-02-28T07:26:21.983Z,3.87
2023-02-28T07:28:50.880Z,7.93
2023-02-28T07:31:20.315Z,10.47
2023-02-28T07:33:51.544Z,10.40
2023-02-28T07:36:20.916Z,11.33
2023-02-28T07:38:51.714Z,7.35
2023-02-28T07:41:22.491Z,4.75
2023-02-28T07:43:51.030Z,7.00
2023-02-28T07:46:21.313Z,8.37
2023-02-28T07:48:51.412Z,3.03
2023-02-28T07:51:19.792Z,3.93
2023-02-28T07:53:48.584Z,2.73
2023-02-28T07:56:17.412Z,3.63
2023-02-28T07:58:46.579Z,5.63
2023-02-28T08:01:15.653Z,6.50
2023-02-28T08:03:47.062Z,6.13
2023-02-28T08:06:21.887Z,9.07
2023-02-28T08:08:51.718Z,2.97
2023-02-28T08:11:20.243Z,7.83
2023-02-28T08:13:49.059Z,2.97
2023-02-28T08:16:25.101Z,3.70
2023-02-28T08:18:54.095Z,3.47
2023-02-28T08:21:24.309Z,4.85
2023-02-28T08:23:53.298Z,3.47
2023-02-28T08:26:22.307Z,10.82
2023-02-28T08:28:50.766Z,2.23
2023-02-28T08:31:20.042Z,2.07
2023-02-28T08:33:51.984Z,3.00
2023-02-28T08:36:20.837Z,3.07
2023-02-28T08:38:50.860Z,4.33
2023-02-28T08:41:19.388Z,2.60
2023-02-28T08:43:48.094Z,3.37
2023-02-28T08:46:16.882Z,4.37
2023-02-28T08:48:45.494Z,3.07
2023-02-28T08:51:17.211Z,4.97
2023-02-28T08:53:46.982Z,4.63
2023-02-28T08:56:18.456Z,4.65
2023-02-28T08:58:47.693Z,3.45
2023-02-28T09:01:18.674Z,3.83
2023-02-28T09:03:48.829Z,2.57
2023-02-28T09:19:01.805Z,6.15
2023-02-28T09:44:47.449Z,6.45
2023-02-28T09:50:25.271Z,5.10
2023-02-28T10:01:31.542Z,3.78
2023-02-28T10:08:17.940Z,3.88
2023-02-28T10:10:52.559Z,5.93
2023-02-28T10:13:29.580Z,3.10
2023-02-28T10:16:04.837Z,6.50
2023-02-28T10:18:44.329Z,3.75
2023-02-28T10:21:22.453Z,2.45
2023-02-28T10:23:53.902Z,4.63
2023-02-28T10:26:22.546Z,3.95
2023-02-28T10:28:55.047Z,3.92
2023-02-28T10:31:26.065Z,3.53
2023-02-28T10:33:55.989Z,4.90
2023-02-28T10:36:24.412Z,3.50
2023-02-28T10:38:53.181Z,5.65
2023-02-28T10:41:31.635Z,5.28
2023-02-28T10:44:22.450Z,4.40
2023-02-28T10:46:51.811Z,4.95
2023-02-28T10:49:23.648Z,4.15
2023-02-28T10:51:55.027Z,4.43
2023-02-28T10:54:26.568Z,7.70
2023-02-28T10:57:21.343Z,2.90
2023-02-28T10:59:56.056Z,4.72
2023-02-28T11:05:03.216Z,4.25
2023-02-28T11:07:41.530Z,6.55
2023-02-28T11:10:23.021Z,3.10
2023-02-28T11:12:53.395Z,3.42
2023-02-28T11:15:27.153Z,3.08
2023-02-28T11:17:57.510Z,3.25
2023-02-28T11:20:29.306Z,4.18
2023-02-28T11:23:02.750Z,4.20
2023-02-28T11:25:36.510Z,6.38
2023-02-28T11:28:07.616Z,2.95
2023-02-28T11:30:40.040Z,6.70
2023-02-28T11:33:24.523Z,3.53
2023-02-28T11:35:55.613Z,7.00
2023-02-28T11:38:24.116Z,4.53
2023-02-28T11:41:04.640Z,3.92
2023-02-28T11:43:47.843Z,5.00
2023-02-28T11:46:28.282Z,4.05
2023-02-28T11:49:08.270Z,4.97
2023-02-28T11:51:49.616Z,3.90
2023-02-28T11:54:34.608Z,5.10
2023-02-28T11:57:13.977Z,4.38
2023-02-28T11:59:54.480Z,5.28
2023-02-28T12:02:29.139Z,4.18
2023-02-28T12:05:20.100Z,3.40
2023-02-28T12:07:59.577Z,4.82
2023-02-28T12:10:31.045Z,4.20
2023-02-28T12:13:15.127Z,3.38
2023-02-28T12:16:09.847Z,3.25
2023-02-28T12:18:58.481Z,6.03
2023-02-28T12:21:35.902Z,3.65
2023-02-28T12:24:20.962Z,3.22
2023-02-28T12:26:51.219Z,6.95
2023-02-28T12:29:25.198Z,4.85
2023-02-28T12:31:58.737Z,4.55
2023-02-28T12:34:34.312Z,3.60
2023-02-28T12:37:10.039Z,4.38
2023-02-28T12:39:50.214Z,5.10
2023-02-28T12:42:29.462Z,6.57
2023-02-28T12:45:01.494Z,2.90
2023-02-28T12:47:29.889Z,4.95
2023-02-28T12:50:05.317Z,3.05
2023-02-28T12:52:43.280Z,5.55
2023-02-28T12:55:22.005Z,4.03
2023-02-28T12:57:57.866Z,4.63
2023-02-28T13:00:32.072Z,4.50
2023-02-28T13:03:25.914Z,4.10
2023-02-28T13:06:25.098Z,3.60
2023-02-28T13:09:10.722Z,3.72
2023-02-28T13:11:44.381Z,3.50
2023-02-28T13:14:27.660Z,3.67
2023-02-28T13:17:03.611Z,5.15
2023-02-28T13:19:34.482Z,3.75
2023-02-28T13:22:06.796Z,3.88
2023-02-28T13:24:47.749Z,3.63
2023-02-28T13:27:40.342Z,3.90
2023-02-28T13:30:46.537Z,3.40
2023-02-28T13:33:29.920Z,3.40
2023-02-28T13:36:24.991Z,4.13
2023-02-28T13:38:56.534Z,5.68
2023-02-28T13:41:49.298Z,4.40
2023-02-28T13:44:24.199Z,3.33
2023-02-28T13:47:35.296Z,2.85
2023-02-28T13:50:29.536Z,5.35
2023-02-28T13:53:32.226Z,5.05
2023-02-28T13:56:10.828Z,5.25
2023-02-28T13:58:49.056Z,3.50
2023-02-28T14:01:53.312Z,5.95
2023-02-28T14:05:01.859Z,3.50
2023-02-28T14:07:36.360Z,7.57
2023-02-28T14:10:09.607Z,4.70
2023-02-28T14:13:00.468Z,5.05
2023-02-28T14:15:38.470Z,4.38
2023-02-28T14:18:15.495Z,4.20
2023-02-28T14:20:45.737Z,8.40
2023-02-28T14:23:22.978Z,7.38
2023-02-28T14:26:03.576Z,8.18
2023-02-28T14:28:51.815Z,6.53
2023-02-28T14:31:25.799Z,4.00
2023-02-28T14:34:15.032Z,4.72
2023-02-28T14:36:44.435Z,3.83
2023-02-28T14:39:16.060Z,5.30
2023-02-28T14:41:46.290Z,5.57
2023-02-28T14:44:22.277Z,4.18
2023-02-28T14:46:56.480Z,4.55
2023-02-28T14:49:30.201Z,5.05
2023-02-28T14:52:10.644Z,5.25
2023-02-28T14:54:39.028Z,4.63
2023-02-28T14:57:07.903Z,5.30
2023-02-28T14:59:38.846Z,7.75
2023-02-28T15:02:18.656Z,6.13
2023-02-28T15:04:58.355Z,6.43
2023-02-28T15:07:30.650Z,5.47
2023-02-28T15:10:20.505Z,6.05
2023-02-28T15:12:57.956Z,4.35
2023-02-28T15:15:51.553Z,9.75
2023-02-28T15:18:33.826Z,5.20
2023-02-28T15:21:06.319Z,7.78
2023-02-28T15:23:36.697Z,5.45
2023-02-28T15:26:06.651Z,9.63
2023-02-28T15:28:35.799Z,5.22
2023-02-28T15:31:23.950Z,5.22
2023-02-28T15:33:56.785Z,6.85
2023-02-28T15:36:29.124Z,5.85
2023-02-28T15:39:07.048Z,5.75
2023-02-28T15:41:44.126Z,6.10
2023-02-28T15:44:37.963Z,7.40
2023-02-28T15:47:17.020Z,6.88
2023-02-28T15:49:51.640Z,5.32
2023-02-28T15:52:23.354Z,6.30
2023-02-28T15:54:52.341Z,9.13
2023-02-28T15:57:27.555Z,7.65
2023-02-28T15:59:58.610Z,9.63
2023-02-28T16:02:35.819Z,7.10
2023-02-28T16:05:29.035Z,7.90
2023-02-28T16:07:58.805Z,7.80
2023-02-28T16:10:28.835Z,7.60
2023-02-28T16:12:59.906Z,6.20
2023-02-28T16:15:30.245Z,5.47
2023-02-28T16:18:00.647Z,5.80
2023-02-28T16:20:33.053Z,7.15
2023-02-28T16:23:03.803Z,4.70
2023-02-28T16:25:38.137Z,9.90
2023-02-28T16:28:10.357Z,6.40
2023-02-28T16:30:38.940Z,7.57
2023-02-28T16:33:11.643Z,9.05
2023-02-28T16:35:40.136Z,7.50
2023-02-28T16:38:08.351Z,8.23
2023-02-28T16:40:39.852Z,7.43
2023-02-28T16:43:13.532Z,7.03
2023-02-28T16:45:41.761Z,9.95
2023-02-28T16:48:14.704Z,8.80
2023-02-28T16:50:46.533Z,7.28
2023-02-28T16:53:14.733Z,8.15
2023-02-28T16:55:45.215Z,9.73
2023-02-28T16:58:17.178Z,11.57
2023-02-28T17:00:47.944Z,6.68
2023-02-28T17:03:32.804Z,8.02
2023-02-28T17:06:02.138Z,10.93
2023-02-28T17:08:30.837Z,10.13
2023-02-28T17:10:59.306Z,10.53
2023-02-28T17:13:27.850Z,10.07
2023-02-28T17:15:56.799Z,12.33
2023-02-28T17:18:27.698Z,11.70
2023-02-28T17:20:55.940Z,11.47
2023-02-28T17:23:24.387Z,11.77
2023-02-28T17:25:57.797Z,10.37
2023-02-28T17:28:28.369Z,18.80
2023-02-28T17:30:59.676Z,15.60
2023-02-28T17:33:29.272Z,10.48
2023-02-28T17:35:57.841Z,12.48
2023-02-28T17:38:26.259Z,13.20
2023-02-28T17:40:59.038Z,10.82
2023-02-28T17:43:28.248Z,8.43
2023-02-28T17:45:56.877Z,11.55
2023-02-28T17:48:25.614Z,12.75
2023-02-28T17:50:55.611Z,11.80
2023-02-28T17:53:24.541Z,15.93
2023-02-28T17:55:52.887Z,10.93
2023-02-28T17:58:22.170Z,9.18
2023-02-28T18:00:54.762Z,12.75
2023-02-28T18:03:23.145Z,11.98
2023-02-28T18:05:52.293Z,12.82
2023-02-28T18:08:22.349Z,12.35
2023-02-28T18:10:50.794Z,12.60
2023-02-28T18:13:19.240Z,9.52
2023-02-28T18:15:48.743Z,12.57
2023-02-28T18:18:17.112Z,8.60
2023-02-28T18:20:45.882Z,11.00
2023-02-28T18:23:14.331Z,8.25
2023-02-28T18:25:44.489Z,12.55
2023-02-28T18:28:13.028Z,14.40
2023-02-28T18:30:43.761Z,12.00
2023-02-28T18:33:12.256Z,11.93
2023-02-28T18:35:44.817Z,10.27
2023-02-28T18:38:15.964Z,9.88
2023-02-28T18:40:55.590Z,11.13
2023-02-28T18:43:26.470Z,10.30
2023-02-28T18:45:54.796Z,15.27
2023-02-28T18:48:24.274Z,11.23
2023-02-28T18:50:53.374Z,12.63
2023-02-28T18:53:21.572Z,13.60
2023-02-28T18:58:57.832Z,10.43
2023-02-28T19:01:29.942Z,11.43
2023-02-28T19:04:00.597Z,13.60
2023-02-28T19:06:30.628Z,11.63
2023-02-28T19:09:00.881Z,8.85
2023-02-28T19:11:30.629Z,10.88
2023-02-28T19:14:02.626Z,9.63
2023-02-28T19:16:32.309Z,10.60
2023-02-28T19:19:01.723Z,12.60
2023-02-28T19:21:36.799Z,14.90
2023-02-28T19:24:05.619Z,12.00
2023-02-28T19:26:36.708Z,14.60
2023-02-28T19:29:05.666Z,15.77
2023-02-28T19:31:34.330Z,18.73
2023-02-28T19:34:03.120Z,13.30
2023-02-28T19:36:31.537Z,11.07
2023-02-28T19:39:00.000Z,15.25
2023-02-28T19:41:28.584Z,11.65
2023-02-28T19:43:58.942Z,12.40
2023-02-28T19:46:27.339Z,9.35
2023-02-28T19:48:56.816Z,12.40
2023-02-28T19:51:25.965Z,11.20
2023-02-28T19:53:54.725Z,12.63
2023-02-28T19:56:23.879Z,12.43
2023-02-28T19:58:52.232Z,12.63
2023-02-28T20:01:21.807Z,15.37
2023-02-28T20:03:52.523Z,14.27
2023-02-28T20:06:21.561Z,13.73
2023-02-28T20:08:49.853Z,13.57
2023-02-28T20:11:18.925Z,15.77
2023-02-28T20:13:47.444Z,13.83
2023-02-28T20:16:17.251Z,14.03
2023-02-28T20:18:52.626Z,13.00
2023-02-28T20:21:20.854Z,11.80
2023-02-28T20:23:49.909Z,11.17
2023-02-28T20:26:20.141Z,12.40
2023-02-28T20:28:48.877Z,12.33
2023-02-28T20:31:19.429Z,10.33
2023-02-28T20:33:49.901Z,11.77
2023-02-28T20:36:21.294Z,10.37
2023-02-28T20:38:53.328Z,8.97
2023-02-28T20:41:22.191Z,8.07
2023-02-28T20:43:54.855Z,8.18
2023-02-28T20:46:23.298Z,12.83
2023-02-28T20:48:53.653Z,14.47
2023-02-28T20:51:23.083Z,16.17
2023-02-28T20:53:51.813Z,10.00
2023-02-28T20:56:21.316Z,11.63
2023-02-28T20:58:52.188Z,14.90
2023-02-28T21:01:26.037Z,16.77
2023-02-28T21:03:57.723Z,13.87
2023-02-28T21:06:29.067Z,13.73
2023-02-28T21:08:58.682Z,13.88
2023-02-28T21:11:29.267Z,12.23
2023-02-28T21:14:00.510Z,17.47
2023-02-28T21:16:30.747Z,10.93
2023-02-28T21:19:04.073Z,13.87
2023-02-28T21:21:34.904Z,14.47
2023-02-28T21:24:03.728Z,16.17
2023-02-28T21:26:33.167Z,12.50
2023-02-28T21:29:05.080Z,12.87
2023-02-28T21:31:35.213Z,13.43
2023-02-28T21:34:07.209Z,14.60
2023-02-28T21:36:39.780Z,11.93
2023-02-28T21:39:25.473Z,16.03
2023-02-28T21:41:54.446Z,13.40
2023-02-28T21:44:22.876Z,12.07
2023-02-28T21:46:54.924Z,15.67
2023-02-28T21:49:25.891Z,16.47
2023-02-28T21:51:56.445Z,13.90
2023-02-28T21:54:24.805Z,12.40
2023-02-28T21:56:53.739Z,14.32
2023-02-28T21:59:22.058Z,13.17
2023-02-28T22:01:52.027Z,13.30
2023-02-28T22:04:22.475Z,13.93
2023-02-28T22:06:54.046Z,11.93
2023-02-28T22:09:22.435Z,13.02
2023-02-28T22:11:54.972Z,13.30
2023-02-28T22:14:24.711Z,14.30
2023-02-28T22:16:55.025Z,15.33
2023-02-28T22:19:24.516Z,17.07
2023-02-28T22:21:54.763Z,14.43
2023-02-28T22:24:24.741Z,13.30
2023-02-28T22:26:53.756Z,13.43
2023-02-28T22:29:22.005Z,14.93
2023-02-28T22:31:51.447Z,12.80
2023-02-28T22:34:19.735Z,17.10
2023-02-28T22:36:47.946Z,17.67
2023-02-28T22:39:19.237Z,11.90
2023-02-28T22:41:47.973Z,16.17
2023-02-28T22:44:18.912Z,14.07
2023-02-28T22:46:47.205Z,14.93
2023-02-28T22:49:17.469Z,12.63
2023-02-28T22:51:47.134Z,11.83
2023-02-28T22:54:15.269Z,9.40
2023-02-28T22:56:44.960Z,10.73
2023-02-28T22:59:14.781Z,14.82
2023-02-28T23:01:45.075Z,11.37
2023-02-28T23:04:13.696Z,12.97
2023-02-28T23:06:43.765Z,13.90
2023-02-28T23:09:15.350Z,10.23
2023-02-28T23:11:46.405Z,11.33
2023-02-28T23:14:16.347Z,13.47
2023-02-28T23:16:46.982Z,9.00
2023-02-28T23:19:17.264Z,11.27
2023-02-28T23:21:49.557Z,10.93
2023-02-28T23:24:20.269Z,10.07
2023-02-28T23:26:52.927Z,12.47
2023-02-28T23:29:23.992Z,12.70
2023-02-28T23:31:52.802Z,13.07
2023-02-28T23:34:26.497Z,11.17
2023-02-28T23:36:55.852Z,11.70
2023-02-28T23:39:26.547Z,9.97
2023-02-28T23:41:56.390Z,8.27
2023-02-28T23:44:24.884Z,10.57
2023-02-28T23:46:56.196Z,9.23
2023-02-28T23:49:24.622Z,10.23
2023-02-28T23:51:54.539Z,10.90
2023-02-28T23:54:23.292Z,9.17
2023-02-28T23:56:52.020Z,10.20
2023-02-28T23:59:22.863Z,9.80
